Home   Weather   Andorra   Andorra La Vella   Past weeks
Flag for Andorra

Past Weather in Andorra La Vella, Andorra — Yesterday and Last 2 Weeks

Currently: 61 °F. Passing clouds. (Weather station: Carcassonne Airport, Andorra). See more current weather

Past Weather in Andorra La Vella — Graph

°F

Andorra La Vella Temperature Yesterday

Maximum temperature yesterday: 75 °F (at 4:30 pm)
Minimum temperature yesterday: 57 °F (at 5:30 am)
Average temperature yesterday: 65 °F

High & Low Weather Summary for the Past Weeks

 TemperatureHumidityPressure
High95 °F (Jun 14, 4:30 pm)100% (Jun 17, 7:00 pm)30.21 "Hg (Jun 17, 7:00 pm)
Low57 °F (Jun 22, 4:00 am)28% (Jun 13, 5:30 pm)29.68 "Hg (Jun 20, 3:00 pm)
Average73 °F70%29.99 "Hg
* Reported Jun 10 4:00 am — Jun 25 4:30 am, Andorra La Vella. Weather by CustomWeather, © 2021

Note: Actual official high and low records may vary slightly from our data, if they occured in-between our weather recording intervals... More about our weather records

Andorra La Vella Weather History for the Previous 24 Hours

Scroll right to see more
 ConditionsComfort  
Time TempWeatherWind HumidityBarometerVisibility
4:30 am
Fri, Jun 25
63 °FPassing clouds.7 mph73%30.18 "HgN/A
4:00 am63 °FPassing clouds.7 mph73%30.18 "HgN/A
3:30 am63 °FOvercast.7 mph77%30.21 "HgN/A
3:00 am63 °FOvercast.6 mph77%30.21 "HgN/A
2:30 am63 °FPassing clouds.6 mph77%30.21 "HgN/A
2:00 am63 °FPassing clouds.7 mph77%30.21 "HgN/A
1:30 am63 °FPassing clouds.6 mph77%30.21 "HgN/A
1:00 am63 °FPassing clouds.6 mph77%30.21 "HgN/A
12:30 am63 °FPassing clouds.7 mph77%30.21 "HgN/A
12:00 am63 °FPartly cloudy.7 mph77%30.21 "HgN/A
11:30 pm
Thu, Jun 24
64 °FPassing clouds.7 mph73%30.21 "HgN/A
11:00 pm64 °FPassing clouds.6 mph73%30.21 "HgN/A
10:30 pm66 °FPassing clouds.6 mph68%30.21 "HgN/A
10:00 pm66 °FPassing clouds.7 mph68%30.18 "HgN/A
9:30 pm68 °FPartly sunny.8 mph60%30.18 "HgN/A
9:00 pm70 °FPassing clouds.10 mph57%30.18 "HgN/A
8:30 pm72 °FSunny.9 mph53%30.18 "Hg10 mi
8:00 pm73 °FSunny.13 mph47%30.18 "Hg10 mi
7:30 pm73 °FPassing clouds.13 mph53%30.18 "HgN/A
7:00 pm73 °FScattered clouds.13 mph50%30.18 "HgN/A
6:30 pm75 °FScattered clouds.14 mph50%30.18 "HgN/A
6:00 pm75 °FPassing clouds.14 mph50%30.18 "HgN/A
5:30 pm75 °FScattered clouds.16 mph50%30.18 "HgN/A
5:00 pm73 °FSunny.15 mph53%30.18 "Hg10 mi
4:30 pm75 °FPassing clouds.17 mph50%30.18 "HgN/A
4:00 pm73 °FScattered clouds.15 mph57%30.18 "HgN/A
3:30 pm73 °FPartly sunny.14 mph57%30.18 "HgN/A
3:00 pm72 °FPartly sunny.15 mph61%30.18 "HgN/A
2:30 pm72 °FPassing clouds.14 mph61%30.18 "HgN/A
2:00 pm70 °FPartly sunny.14 mph64%30.21 "HgN/A
1:30 pm72 °FPartly sunny.13 mph65%30.21 "HgN/A
1:00 pm68 °FMore clouds than sun.14 mph73%30.21 "HgN/A
12:30 pm68 °FBroken clouds.15 mph69%30.21 "HgN/A
12:00 pm64 °FMostly cloudy.12 mph83%30.21 "HgN/A
11:30 am64 °FPartly sunny.13 mph78%30.18 "HgN/A
11:00 am66 °FMostly cloudy.17 mph78%30.18 "HgN/A
10:30 am64 °FPartly sunny.16 mph78%30.18 "HgN/A
10:00 am63 °FPartly sunny.16 mph77%30.18 "HgN/A
9:30 am61 °FOvercast.13 mph83%30.18 "HgN/A
9:00 am61 °FOvercast.10 mph83%30.18 "HgN/A
8:30 am61 °FMostly cloudy.8 mph83%30.15 "HgN/A
8:00 am59 °FOvercast.7 mph88%30.15 "HgN/A
7:30 am59 °FOvercast.6 mph88%30.15 "HgN/A
7:00 am57 °FPartly sunny.7 mph94%30.15 "HgN/A
6:30 am57 °FPartly sunny.5 mph94%30.15 "HgN/A
6:00 am57 °FPassing clouds.7 mph94%30.15 "HgN/A
5:30 am57 °FPassing clouds.7 mph94%30.12 "HgN/A
5:00 am59 °FOvercast.7 mph88%30.15 "HgN/A
Weather by CustomWeather, © 2021

See weather overview